Aviation Digital Data Service (ADDS)

Output produced by METARs form (0341 UTC 26 June 2019)
found at http://www.aviationweather.gov/metar/data/
 
METAR text: PGWT 260255Z 10008KT 7SM SCT016 BKN150 32/23 A2985 RMK WIND DATA ESTIMATED
Conditions at: PGWT (PEIPEINIMARU/TIN, GU, US) observed 0255 UTC 26 June 2019
Temperature: 32.0°C (90°F)
Dewpoint: 23.0°C (73°F) [RH = 59%]
Pressure (altimeter): 29.85 inches Hg (1010.9 mb)
Winds: from the E (100 degrees) at 9 MPH (8 knots; 4.1 m/s)
Visibility: 7 miles (11 km)
Ceiling: 15000 feet AGL
Clouds: scattered clouds at 1600 feet AGL
broken clouds at 15000 feet AGL
Weather: no significant weather observed at this time

METAR text: PGWT 260155Z 10010KT 7SM FEW016 SCT150 32/23 A2987 RMK WIND DATA ESTIMATED
Conditions at: PGWT (PEIPEINIMARU/TIN, GU, US) observed 0155 UTC 26 June 2019
Temperature: 32.0°C (90°F)
Dewpoint: 23.0°C (73°F) [RH = 59%]
Pressure (altimeter): 29.87 inches Hg (1011.6 mb)
Winds: from the E (100 degrees) at 12 MPH (10 knots; 5.1 m/s)
Visibility: 7 miles (11 km)
Ceiling: at least 12,000 feet AGL
Clouds: few clouds at 1600 feet AGL
scattered clouds at 15000 feet AGL
Weather: no significant weather observed at this time

METAR text: PGWT 260057Z 11011KT 7SM FEW016 SCT150 31/23 A2988 RMK WIND DATA ESTIMATED
Conditions at: PGWT (PEIPEINIMARU/TIN, GU, US) observed 0057 UTC 26 June 2019
Temperature: 31.0°C (88°F)
Dewpoint: 23.0°C (73°F) [RH = 63%]
Pressure (altimeter): 29.88 inches Hg (1011.9 mb)
Winds: from the ESE (110 degrees) at 13 MPH (11 knots; 5.7 m/s)
Visibility: 7 miles (11 km)
Ceiling: at least 12,000 feet AGL
Clouds: few clouds at 1600 feet AGL
scattered clouds at 15000 feet AGL
Weather: no significant weather observed at this time

METAR text: PGWT 252356Z 11012KT 7SM FEW016 SCT150 31/23 A2989 RMK WIND DATA ESTIMATED
Conditions at: PGWT (PEIPEINIMARU/TIN, GU, US) observed 2356 UTC 25 June 2019
Temperature: 31.0°C (88°F)
Dewpoint: 23.0°C (73°F) [RH = 63%]
Pressure (altimeter): 29.89 inches Hg (1012.3 mb)
Winds: from the ESE (110 degrees) at 14 MPH (12 knots; 6.2 m/s)
Visibility: 7 miles (11 km)
Ceiling: at least 12,000 feet AGL
Clouds: few clouds at 1600 feet AGL
scattered clouds at 15000 feet AGL
Weather: no significant weather observed at this time

METAR text: PGWT 252255Z 11009KT 7SM FEW016 SCT150 30/23 A2990 RMK WIND DATA ESTIMATED
Conditions at: PGWT (PEIPEINIMARU/TIN, GU, US) observed 2255 UTC 25 June 2019
Temperature: 30.0°C (86°F)
Dewpoint: 23.0°C (73°F) [RH = 66%]
Pressure (altimeter): 29.90 inches Hg (1012.6 mb)
Winds: from the ESE (110 degrees) at 10 MPH (9 knots; 4.6 m/s)
Visibility: 7 miles (11 km)
Ceiling: at least 12,000 feet AGL
Clouds: few clouds at 1600 feet AGL
scattered clouds at 15000 feet AGL
Weather: no significant weather observed at this time

METAR text: PGWT 252159Z 10010KT 7SM FEW016 SCT150 29/24 A2989 RMK WIND DATA ESTIMATED
Conditions at: PGWT (PEIPEINIMARU/TIN, GU, US) observed 2159 UTC 25 June 2019
Temperature: 29.0°C (84°F)
Dewpoint: 24.0°C (75°F) [RH = 74%]
Pressure (altimeter): 29.89 inches Hg (1012.3 mb)
Winds: from the E (100 degrees) at 12 MPH (10 knots; 5.1 m/s)
Visibility: 7 miles (11 km)
Ceiling: at least 12,000 feet AGL
Clouds: few clouds at 1600 feet AGL
scattered clouds at 15000 feet AGL
Weather: no significant weather observed at this time

METAR text: PGWT 252052Z 11007KT 7SM FEW016 SCT150 28/22 A2989 RMK WIND DATA ESTIMATED
Conditions at: PGWT (PEIPEINIMARU/TIN, GU, US) observed 2052 UTC 25 June 2019
Temperature: 28.0°C (82°F)
Dewpoint: 22.0°C (72°F) [RH = 70%]
Pressure (altimeter): 29.89 inches Hg (1012.3 mb)
Winds: from the ESE (110 degrees) at 8 MPH (7 knots; 3.6 m/s)
Visibility: 7 miles (11 km)
Ceiling: at least 12,000 feet AGL
Clouds: few clouds at 1600 feet AGL
scattered clouds at 15000 feet AGL
Weather: no significant weather observed at this time

METAR text: PGWT 251959Z 10006KT 7SM FEW015 SCT150 27/23 A2987 RMK WIND DATA ESTIMATED FIRST
Conditions at: PGWT (PEIPEINIMARU/TIN, GU, US) observed 1959 UTC 25 June 2019
Temperature: 27.0°C (81°F)
Dewpoint: 23.0°C (73°F) [RH = 79%]
Pressure (altimeter): 29.87 inches Hg (1011.6 mb)
Winds: from the E (100 degrees) at 7 MPH (6 knots; 3.1 m/s)
Visibility: 7 miles (11 km)
Ceiling: at least 12,000 feet AGL
Clouds: few clouds at 1500 feet AGL
scattered clouds at 15000 feet AGL
Weather: no significant weather observed at this time

METAR text: PGWT 250955Z 09010KT 7SM FEW017 SCT140 28/24 A2990 RMK WIND DATA ESTIMATED LAST
Conditions at: PGWT (PEIPEINIMARU/TIN, GU, US) observed 0955 UTC 25 June 2019
Temperature: 28.0°C (82°F)
Dewpoint: 24.0°C (75°F) [RH = 79%]
Pressure (altimeter): 29.90 inches Hg (1012.6 mb)
Winds: from the E (90 degrees) at 12 MPH (10 knots; 5.1 m/s)
Visibility: 7 miles (11 km)
Ceiling: at least 12,000 feet AGL
Clouds: few clouds at 1700 feet AGL
scattered clouds at 14000 feet AGL
Weather: no significant weather observed at this time

METAR text: PGWT 250850Z 09012KT 7SM FEW017 SCT140 29/24 A2989 RMK WIND DATA ESTIMATED
Conditions at: PGWT (PEIPEINIMARU/TIN, GU, US) observed 0850 UTC 25 June 2019
Temperature: 29.0°C (84°F)
Dewpoint: 24.0°C (75°F) [RH = 74%]
Pressure (altimeter): 29.89 inches Hg (1012.3 mb)
Winds: from the E (90 degrees) at 14 MPH (12 knots; 6.2 m/s)
Visibility: 7 miles (11 km)
Ceiling: at least 12,000 feet AGL
Clouds: few clouds at 1700 feet AGL
scattered clouds at 14000 feet AGL
Weather: no significant weather observed at this time

METAR text: PGWT 250756Z 09012KT 7SM FEW017 SCT140 30/23 A2987 RMK WIND DATA ESTIMATED
Conditions at: PGWT (PEIPEINIMARU/TIN, GU, US) observed 0756 UTC 25 June 2019
Temperature: 30.0°C (86°F)
Dewpoint: 23.0°C (73°F) [RH = 66%]
Pressure (altimeter): 29.87 inches Hg (1011.6 mb)
Winds: from the E (90 degrees) at 14 MPH (12 knots; 6.2 m/s)
Visibility: 7 miles (11 km)
Ceiling: at least 12,000 feet AGL
Clouds: few clouds at 1700 feet AGL
scattered clouds at 14000 feet AGL
Weather: no significant weather observed at this time

METAR text: PGWT 250650Z 09015KT 7SM FEW017 SCT140 32/24 A2987 RMK WIND DATA ESTIMATED
Conditions at: PGWT (PEIPEINIMARU/TIN, GU, US) observed 0650 UTC 25 June 2019
Temperature: 32.0°C (90°F)
Dewpoint: 24.0°C (75°F) [RH = 63%]
Pressure (altimeter): 29.87 inches Hg (1011.6 mb)
Winds: from the E (90 degrees) at 17 MPH (15 knots; 7.7 m/s)
Visibility: 7 miles (11 km)
Ceiling: at least 12,000 feet AGL
Clouds: few clouds at 1700 feet AGL
scattered clouds at 14000 feet AGL
Weather: no significant weather observed at this time

METAR text: PGWT 250550Z 09014KT 7SM FEW017 SCT070 SCT140 32/24 A2987 RMK WIND DATA ESTIMATED
Conditions at: PGWT (PEIPEINIMARU/TIN, GU, US) observed 0550 UTC 25 June 2019
Temperature: 32.0°C (90°F)
Dewpoint: 24.0°C (75°F) [RH = 63%]
Pressure (altimeter): 29.87 inches Hg (1011.6 mb)
Winds: from the E (90 degrees) at 16 MPH (14 knots; 7.2 m/s)
Visibility: 7 miles (11 km)
Ceiling: at least 12,000 feet AGL
Clouds: few clouds at 1700 feet AGL
scattered clouds at 7000 feet AGL
scattered clouds at 14000 feet AGL
Weather: no significant weather observed at this time

METAR text: PGWT 250451Z 09014KT 7SM FEW017 SCT140 32/24 A2987 RMK WIND DATA ESTIMATED
Conditions at: PGWT (PEIPEINIMARU/TIN, GU, US) observed 0451 UTC 25 June 2019
Temperature: 32.0°C (90°F)
Dewpoint: 24.0°C (75°F) [RH = 63%]
Pressure (altimeter): 29.87 inches Hg (1011.6 mb)
Winds: from the E (90 degrees) at 16 MPH (14 knots; 7.2 m/s)
Visibility: 7 miles (11 km)
Ceiling: at least 12,000 feet AGL
Clouds: few clouds at 1700 feet AGL
scattered clouds at 14000 feet AGL
Weather: no significant weather observed at this time

METAR text: PGWT 250350Z 11013KT 7SM SCT016 BKN150 32/23 A2988 RMK WIND DATA ESTIMATED
Conditions at: PGWT (PEIPEINIMARU/TIN, GU, US) observed 0350 UTC 25 June 2019
Temperature: 32.0°C (90°F)
Dewpoint: 23.0°C (73°F) [RH = 59%]
Pressure (altimeter): 29.88 inches Hg (1011.9 mb)
Winds: from the ESE (110 degrees) at 15 MPH (13 knots; 6.7 m/s)
Visibility: 7 miles (11 km)
Ceiling: 15000 feet AGL
Clouds: scattered clouds at 1600 feet AGL
broken clouds at 15000 feet AGL
Weather: no significant weather observed at this time

METAR text: PGWT 250254Z 11014KT 7SM SCT016 SCT080 BKN150 31/24 A2989 RMK WIND DATA ESTIMATED
Conditions at: PGWT (PEIPEINIMARU/TIN, GU, US) observed 0254 UTC 25 June 2019
Temperature: 31.0°C (88°F)
Dewpoint: 24.0°C (75°F) [RH = 66%]
Pressure (altimeter): 29.89 inches Hg (1012.3 mb)
Winds: from the ESE (110 degrees) at 16 MPH (14 knots; 7.2 m/s)
Visibility: 7 miles (11 km)
Ceiling: 15000 feet AGL
Clouds: scattered clouds at 1600 feet AGL
scattered clouds at 8000 feet AGL
broken clouds at 15000 feet AGL
Weather: no significant weather observed at this time

METAR text: PGWT 250155Z 10014KT 7SM FEW016 SCT080 SCT120 BKN140 31/22 A2991 RMK WIND DATA ESTIMATED
Conditions at: PGWT (PEIPEINIMARU/TIN, GU, US) observed 0155 UTC 25 June 2019
Temperature: 31.0°C (88°F)
Dewpoint: 22.0°C (72°F) [RH = 59%]
Pressure (altimeter): 29.91 inches Hg (1013.0 mb)
Winds: from the E (100 degrees) at 16 MPH (14 knots; 7.2 m/s)
Visibility: 7 miles (11 km)
Ceiling: 14000 feet AGL
Clouds: few clouds at 1600 feet AGL
scattered clouds at 8000 feet AGL
scattered clouds at 12000 feet AGL
broken clouds at 14000 feet AGL
Weather: no significant weather observed at this time

METAR text: PGWT 250056Z 11010KT 7SM SCT015 BKN150 31/24 A2993 RMK WIND DATA ESTIMATED
Conditions at: PGWT (PEIPEINIMARU/TIN, GU, US) observed 0056 UTC 25 June 2019
Temperature: 31.0°C (88°F)
Dewpoint: 24.0°C (75°F) [RH = 66%]
Pressure (altimeter): 29.93 inches Hg (1013.6 mb)
Winds: from the ESE (110 degrees) at 12 MPH (10 knots; 5.1 m/s)
Visibility: 7 miles (11 km)
Ceiling: 15000 feet AGL
Clouds: scattered clouds at 1500 feet AGL
broken clouds at 15000 feet AGL
Weather: no significant weather observed at this time

METAR text: PGWT 242355Z 11010KT 7SM -RA SCT015 SCT035 BKN080 BKN150 30/22 A2994 RMK WIND DATA ESTIMATED
Conditions at: PGWT (PEIPEINIMARU/TIN, GU, US) observed 2355 UTC 24 June 2019
Temperature: 30.0°C (86°F)
Dewpoint: 22.0°C (72°F) [RH = 62%]
Pressure (altimeter): 29.94 inches Hg (1014.0 mb)
Winds: from the ESE (110 degrees) at 12 MPH (10 knots; 5.1 m/s)
Visibility: 7 miles (11 km)
Ceiling: 8000 feet AGL
Clouds: scattered clouds at 1500 feet AGL
scattered clouds at 3500 feet AGL
broken clouds at 8000 feet AGL
broken clouds at 15000 feet AGL
Weather: -RA  (light rain)

METAR text: PGWT 242259Z 11007KT 7SM SCT016 SCT080 BKN150 BKN170 30/24 A2994 RMK WIND DATA ESTIMATED
Conditions at: PGWT (PEIPEINIMARU/TIN, GU, US) observed 2259 UTC 24 June 2019
Temperature: 30.0°C (86°F)
Dewpoint: 24.0°C (75°F) [RH = 70%]
Pressure (altimeter): 29.94 inches Hg (1014.0 mb)
Winds: from the ESE (110 degrees) at 8 MPH (7 knots; 3.6 m/s)
Visibility: 7 miles (11 km)
Ceiling: 15000 feet AGL
Clouds: scattered clouds at 1600 feet AGL
scattered clouds at 8000 feet AGL
broken clouds at 15000 feet AGL
broken clouds at 17000 feet AGL
Weather: no significant weather observed at this time

METAR text: PGWT 242157Z 11009KT 7SM SCT015 BKN080 BKN160 28/24 A2994 RMK WIND DATA ESTIMATED
Conditions at: PGWT (PEIPEINIMARU/TIN, GU, US) observed 2157 UTC 24 June 2019
Temperature: 28.0°C (82°F)
Dewpoint: 24.0°C (75°F) [RH = 79%]
Pressure (altimeter): 29.94 inches Hg (1014.0 mb)
Winds: from the ESE (110 degrees) at 10 MPH (9 knots; 4.6 m/s)
Visibility: 7 miles (11 km)
Ceiling: 8000 feet AGL
Clouds: scattered clouds at 1500 feet AGL
broken clouds at 8000 feet AGL
broken clouds at 16000 feet AGL
Weather: no significant weather observed at this time

METAR text: PGWT 242059Z 11007KT 7SM SCT015 BKN100 BKN160 28/24 A2993 RMK WIND DATA ESTIMATED
Conditions at: PGWT (PEIPEINIMARU/TIN, GU, US) observed 2059 UTC 24 June 2019
Temperature: 28.0°C (82°F)
Dewpoint: 24.0°C (75°F) [RH = 79%]
Pressure (altimeter): 29.93 inches Hg (1013.6 mb)
Winds: from the ESE (110 degrees) at 8 MPH (7 knots; 3.6 m/s)
Visibility: 7 miles (11 km)
Ceiling: 10000 feet AGL
Clouds: scattered clouds at 1500 feet AGL
broken clouds at 10000 feet AGL
broken clouds at 16000 feet AGL
Weather: no significant weather observed at this time

METAR text: PGWT 241958Z 11005KT 7SM SCT015 BKN080 BKN170 26/24 A2991 RMK WIND DATA ESTIMATED FIRST
Conditions at: PGWT (PEIPEINIMARU/TIN, GU, US) observed 1958 UTC 24 June 2019
Temperature: 26.0°C (79°F)
Dewpoint: 24.0°C (75°F) [RH = 89%]
Pressure (altimeter): 29.91 inches Hg (1013.0 mb)
Winds: from the ESE (110 degrees) at 6 MPH (5 knots; 2.6 m/s)
Visibility: 7 miles (11 km)
Ceiling: 8000 feet AGL
Clouds: scattered clouds at 1500 feet AGL
broken clouds at 8000 feet AGL
broken clouds at 17000 feet AGL
Weather: no significant weather observed at this time

Forecast for: PGWT (PEIPEINIMARU/TIN, GU, US)
Text: PGWT 252327Z 2600/2624 10013KT P6SM SCT016
Forecast period: 0000 to 0900 UTC 26 June 2019
Forecast type: FROM: standard forecast or significant change
Winds: from the E (100 degrees) at 15 MPH (13 knots; 6.7 m/s)
Visibility: 6 or more miles 10+ km)
Ceiling: at least 12,000 feet AGL
Clouds: scattered clouds at 1600 feet AGL
Weather: no significant weather forecast for this period
Text: FM260900 08009KT P6SM FEW016 SCT050
Forecast period: 0900 UTC 26 June 2019 to 0000 UTC 27 June 2019
Forecast type: FROM: standard forecast or significant change
Winds: from the E (80 degrees) at 10 MPH (9 knots; 4.6 m/s)
Visibility: 6 or more miles 10+ km)
Ceiling: at least 12,000 feet AGL
Clouds: few clouds at 1600 feet AGL
scattered clouds at 5000 feet AGL
Weather: no significant weather forecast for this period